Alameda, CA (94501)

7:46 AM PDT on September 18, 2014 (GMT -0700)
Shoreline | Change Station
CLOSE
Current Station
Personal Weather Station
Location: Alameda, CA
Elevation: 10 ft
Nearby Weather Stations

Elev 10 ft 37.76 °N, 122.26 °W | Updated 21 seconds ago

Overcast
Overcast
68.4 °F
Feels Like 68.4 °F
N
2.5
Wind Variable Wind from North
Gusts 4.9 mph

Today
High -- | Low -- °F
--% Chance of Precip.
Yesterday
High -- | Low -- °F
Precip. -- in
6:53 AM 7:12 PM
Waning Crescent, 26% visible
Pressure 29.81 in
Visibility 10.0 miles
Clouds Few 3200 ft
Mostly Cloudy 4500 ft
Mostly Cloudy 5000 ft
Dew Point 66 °F
Humidity 91%
Rainfall 0.00 in
Snow Depth 1 in , 0 in , 1 in
UV 0 out of 12
Pollen 5.10 out of 12
Air Quality Not available.
Flu Activity Not available.
METAR KOAK 181353Z 18008KT 10SM FEW032 BKN045 BKN050 21/17 A2982 RMK AO2 SLP095 T02060167 $

More Conditions Fewer Conditions

Pressure 29.81 in
Visibility 10.0 miles
Clouds Few 3200 ft
Mostly Cloudy 4500 ft
Mostly Cloudy 5000 ft
Dew Point 66 °F
Humidity 91%
Rainfall 0.00 in
Snow Depth 1 in , 0 in , 1 in
UV 0 out of 12
Pollen 5.10 out of 12
Air Quality Not available.
Flu Activity Not available.
METAR KOAK 181353Z 18008KT 10SM FEW032 BKN045 BKN050 21/17 A2982 RMK AO2 SLP095 T02060167 $

More Conditions Fewer Conditions

10-Day Weather Forecast

Almanac

Astronomy

Sep. 18, 2014 Rise Set
Actual Time 6:53 AM PDT 7:12 PM PDT
Civil Twilight 6:27 AM PDT 7:38 PM PDT
Nautical Twilight 5:56 AM PDT 8:08 PM PDT
Astronomical Twilight 5:25 AM PDT 8:40 PM PDT
Moon 1:54 AM PDT 4:02 PM PDT
Length of Visible Light 13h 11m
Length of Day
12h 18m
Tomorrow will be 2m 25s shorter.
Waning Crescent, 26% of the Moon is Illuminated
Today
Waning Crescent
Sep 24
New
Oct 1
First Quarter
Oct 8
Full
Oct 15
Last Quarter

Today's Extremes

State Highs State Lows

Community

WunderPhotos

Upload Photos

1,754,357 photos uploaded!

Nearby

Air Quality

  Air Quality AQ Index Pollutant
Yesterday Good
OZONE
Yesterday Good
PM2.5
Thursday Good
OZONE
Friday Good
PM2.5
Saturday Moderate
PM2.5
Sunday Moderate
PM2.5
Monday Moderate
PM2.5

Snow Depth

Station Depth Elevation
Spratt Creek 1 in 6200 ft
Fallen Leaf 0 in 6300 ft
Leavitt Meadows 1 in 7200 ft
Forestdale Creek 0 in 8029 ft
Tahoe City Cross 0 in 6750 ft

Earthquake Activity

City Distance Mag. Time & Date
The Geysers, California 72 miles 2.5 11:29 PM PDT
2014-09-17
Cobb, California 75 miles 2.7 1:23 PM PDT
2014-09-16
Minimum magnitude displayed is 2.5.

Coastal Water Temperatures

Place Temperature
No Stations Reporting

Nearby Weather Stations